sensor_id;sensor_type;location;lat;lon;timestamp;P1;durP1;ratioP1;P2;durP2;ratioP2
64500;SDS011;50874;24.150;-110.320;2024-02-28T00:00:10;43.95;;;6.30;;
64500;SDS011;50874;24.150;-110.320;2024-02-28T00:02:37;35.22;;;4.03;;
64500;SDS011;50874;24.150;-110.320;2024-02-28T00:05:04;6.18;;;1.60;;
64500;SDS011;50874;24.150;-110.320;2024-02-28T00:07:42;10.00;;;2.05;;
64500;SDS011;50874;24.150;-110.320;2024-02-28T00:10:09;20.15;;;2.72;;
64500;SDS011;50874;24.150;-110.320;2024-02-28T00:12:36;34.05;;;3.58;;
64500;SDS011;50874;24.150;-110.320;2024-02-28T00:15:04;27.63;;;3.72;;
64500;SDS011;50874;24.150;-110.320;2024-02-28T00:17:38;11.02;;;2.40;;
64500;SDS011;50874;24.150;-110.320;2024-02-28T00:20:06;23.15;;;2.97;;
64500;SDS011;50874;24.150;-110.320;2024-02-28T00:22:36;11.15;;;1.70;;
64500;SDS011;50874;24.150;-110.320;2024-02-28T00:25:04;21.55;;;2.28;;
64500;SDS011;50874;24.150;-110.320;2024-02-28T00:27:34;9.18;;;2.10;;
64500;SDS011;50874;24.150;-110.320;2024-02-28T00:30:02;12.80;;;1.80;;
64500;SDS011;50874;24.150;-110.320;2024-02-28T00:32:32;10.15;;;2.40;;
64500;SDS011;50874;24.150;-110.320;2024-02-28T00:34:58;59.88;;;7.05;;
64500;SDS011;50874;24.150;-110.320;2024-02-28T00:37:25;42.83;;;5.32;;
64500;SDS011;50874;24.150;-110.320;2024-02-28T00:39:51;48.00;;;7.45;;
64500;SDS011;50874;24.150;-110.320;2024-02-28T00:42:18;68.13;;;8.90;;
64500;SDS011;50874;24.150;-110.320;2024-02-28T00:44:44;120.10;;;14.73;;
64500;SDS011;50874;24.150;-110.320;2024-02-28T00:47:10;26.13;;;4.47;;
64500;SDS011;50874;24.150;-110.320;2024-02-28T00:49:37;28.52;;;4.25;;
64500;SDS011;50874;24.150;-110.320;2024-02-28T00:52:03;24.73;;;3.58;;
64500;SDS011;50874;24.150;-110.320;2024-02-28T00:54:30;24.58;;;3.22;;
64500;SDS011;50874;24.150;-110.320;2024-02-28T00:56:57;25.27;;;2.97;;
64500;SDS011;50874;24.150;-110.320;2024-02-28T00:59:23;21.45;;;3.15;;
64500;SDS011;50874;24.150;-110.320;2024-02-28T01:01:50;23.85;;;3.28;;
64500;SDS011;50874;24.150;-110.320;2024-02-28T01:04:17;13.95;;;2.78;;
64500;SDS011;50874;24.150;-110.320;2024-02-28T01:06:43;22.60;;;3.08;;
64500;SDS011;50874;24.150;-110.320;2024-02-28T01:09:10;16.00;;;2.85;;
64500;SDS011;50874;24.150;-110.320;2024-02-28T01:11:36;14.75;;;3.33;;
64500;SDS011;50874;24.150;-110.320;2024-02-28T01:14:03;14.57;;;3.17;;
64500;SDS011;50874;24.150;-110.320;2024-02-28T01:16:30;11.35;;;2.63;;
64500;SDS011;50874;24.150;-110.320;2024-02-28T01:18:56;8.98;;;1.67;;
64500;SDS011;50874;24.150;-110.320;2024-02-28T01:21:23;15.90;;;2.53;;
64500;SDS011;50874;24.150;-110.320;2024-02-28T01:23:49;17.08;;;3.15;;
64500;SDS011;50874;24.150;-110.320;2024-02-28T01:26:17;14.02;;;2.50;;
64500;SDS011;50874;24.150;-110.320;2024-02-28T01:28:45;14.18;;;2.25;;
64500;SDS011;50874;24.150;-110.320;2024-02-28T01:31:12;9.98;;;2.28;;
64500;SDS011;50874;24.150;-110.320;2024-02-28T01:33:38;13.20;;;2.63;;
64500;SDS011;50874;24.150;-110.320;2024-02-28T01:36:09;22.60;;;3.50;;
64500;SDS011;50874;24.150;-110.320;2024-02-28T01:38:37;13.35;;;2.97;;
64500;SDS011;50874;24.150;-110.320;2024-02-28T01:41:04;28.20;;;2.75;;
64500;SDS011;50874;24.150;-110.320;2024-02-28T01:43:35;15.05;;;2.67;;
64500;SDS011;50874;24.150;-110.320;2024-02-28T01:46:03;10.18;;;1.90;;
64500;SDS011;50874;24.150;-110.320;2024-02-28T01:48:42;17.38;;;2.72;;
64500;SDS011;50874;24.150;-110.320;2024-02-28T01:51:08;13.18;;;2.63;;
64500;SDS011;50874;24.150;-110.320;2024-02-28T01:53:35;8.88;;;2.53;;
64500;SDS011;50874;24.150;-110.320;2024-02-28T01:56:02;11.25;;;1.88;;
64500;SDS011;50874;24.150;-110.320;2024-02-28T01:58:29;17.45;;;2.53;;
64500;SDS011;50874;24.150;-110.320;2024-02-28T02:00:55;20.23;;;2.45;;
64500;SDS011;50874;24.150;-110.320;2024-02-28T02:03:24;9.10;;;2.13;;
64500;SDS011;50874;24.150;-110.320;2024-02-28T02:05:51;9.50;;;2.33;;
64500;SDS011;50874;24.150;-110.320;2024-02-28T02:08:17;16.80;;;3.05;;
64500;SDS011;50874;24.150;-110.320;2024-02-28T02:10:44;18.05;;;2.55;;
64500;SDS011;50874;24.150;-110.320;2024-02-28T02:13:10;14.68;;;2.47;;
64500;SDS011;50874;24.150;-110.320;2024-02-28T02:15:37;19.92;;;2.47;;
64500;SDS011;50874;24.150;-110.320;2024-02-28T02:18:04;13.95;;;2.28;;
64500;SDS011;50874;24.150;-110.320;2024-02-28T02:20:32;13.43;;;2.25;;
64500;SDS011;50874;24.150;-110.320;2024-02-28T02:23:01;14.18;;;3.35;;
64500;SDS011;50874;24.150;-110.320;2024-02-28T02:25:28;20.08;;;4.28;;
64500;SDS011;50874;24.150;-110.320;2024-02-28T02:27:54;25.50;;;6.55;;
64500;SDS011;50874;24.150;-110.320;2024-02-28T02:30:20;26.02;;;5.28;;
64500;SDS011;50874;24.150;-110.320;2024-02-28T02:32:47;19.67;;;2.90;;
64500;SDS011;50874;24.150;-110.320;2024-02-28T02:35:14;10.45;;;2.40;;
64500;SDS011;50874;24.150;-110.320;2024-02-28T02:37:44;10.43;;;2.15;;
64500;SDS011;50874;24.150;-110.320;2024-02-28T02:40:13;14.27;;;2.20;;
64500;SDS011;50874;24.150;-110.320;2024-02-28T02:42:40;15.07;;;2.00;;
64500;SDS011;50874;24.150;-110.320;2024-02-28T02:45:07;14.48;;;1.92;;
64500;SDS011;50874;24.150;-110.320;2024-02-28T02:47:33;14.05;;;2.50;;
64500;SDS011;50874;24.150;-110.320;2024-02-28T02:50:00;16.52;;;2.65;;
64500;SDS011;50874;24.150;-110.320;2024-02-28T02:52:27;14.48;;;3.00;;
64500;SDS011;50874;24.150;-110.320;2024-02-28T02:54:53;13.98;;;2.13;;
64500;SDS011;50874;24.150;-110.320;2024-02-28T02:57:20;15.80;;;2.72;;
64500;SDS011;50874;24.150;-110.320;2024-02-28T02:59:46;13.55;;;3.22;;
64500;SDS011;50874;24.150;-110.320;2024-02-28T03:02:13;19.58;;;3.80;;
64500;SDS011;50874;24.150;-110.320;2024-02-28T03:04:39;33.97;;;4.93;;
64500;SDS011;50874;24.150;-110.320;2024-02-28T03:07:06;29.13;;;3.50;;
64500;SDS011;50874;24.150;-110.320;2024-02-28T03:09:32;22.55;;;4.05;;
64500;SDS011;50874;24.150;-110.320;2024-02-28T03:11:59;30.23;;;4.13;;
64500;SDS011;50874;24.150;-110.320;2024-02-28T03:14:25;38.22;;;4.80;;
64500;SDS011;50874;24.150;-110.320;2024-02-28T03:16:53;37.53;;;5.13;;
64500;SDS011;50874;24.150;-110.320;2024-02-28T03:19:19;32.13;;;4.35;;
64500;SDS011;50874;24.150;-110.320;2024-02-28T03:21:46;25.20;;;3.92;;
64500;SDS011;50874;24.150;-110.320;2024-02-28T03:24:12;31.05;;;4.43;;
64500;SDS011;50874;24.150;-110.320;2024-02-28T03:26:39;25.85;;;4.18;;
64500;SDS011;50874;24.150;-110.320;2024-02-28T03:29:06;32.97;;;4.70;;
64500;SDS011;50874;24.150;-110.320;2024-02-28T03:31:32;36.30;;;5.68;;
64500;SDS011;50874;24.150;-110.320;2024-02-28T03:34:04;40.78;;;6.68;;
64500;SDS011;50874;24.150;-110.320;2024-02-28T03:36:31;36.28;;;5.38;;
64500;SDS011;50874;24.150;-110.320;2024-02-28T03:39:07;48.97;;;6.90;;
64500;SDS011;50874;24.150;-110.320;2024-02-28T03:41:35;52.63;;;9.02;;
64500;SDS011;50874;24.150;-110.320;2024-02-28T03:44:02;88.20;;;10.07;;
64500;SDS011;50874;24.150;-110.320;2024-02-28T03:46:29;66.95;;;9.80;;
64500;SDS011;50874;24.150;-110.320;2024-02-28T03:48:55;53.40;;;8.10;;
64500;SDS011;50874;24.150;-110.320;2024-02-28T03:51:22;65.50;;;8.60;;
64500;SDS011;50874;24.150;-110.320;2024-02-28T03:53:49;21.63;;;4.47;;
64500;SDS011;50874;24.150;-110.320;2024-02-28T03:56:22;16.73;;;3.85;;
64500;SDS011;50874;24.150;-110.320;2024-02-28T03:58:52;27.10;;;4.40;;
64500;SDS011;50874;24.150;-110.320;2024-02-28T04:01:19;15.63;;;3.17;;
64500;SDS011;50874;24.150;-110.320;2024-02-28T04:03:45;25.02;;;4.00;;
64500;SDS011;50874;24.150;-110.320;2024-02-28T04:06:12;8.85;;;2.35;;
64500;SDS011;50874;24.150;-110.320;2024-02-28T04:08:40;20.27;;;4.28;;
64500;SDS011;50874;24.150;-110.320;2024-02-28T04:11:07;22.27;;;4.05;;
64500;SDS011;50874;24.150;-110.320;2024-02-28T04:13:34;25.48;;;3.67;;
64500;SDS011;50874;24.150;-110.320;2024-02-28T04:16:01;24.77;;;3.80;;
64500;SDS011;50874;24.150;-110.320;2024-02-28T04:18:28;16.20;;;2.60;;
64500;SDS011;50874;24.150;-110.320;2024-02-28T04:20:55;30.83;;;4.18;;
64500;SDS011;50874;24.150;-110.320;2024-02-28T04:23:22;29.48;;;4.03;;
64500;SDS011;50874;24.150;-110.320;2024-02-28T04:25:48;29.02;;;3.20;;
64500;SDS011;50874;24.150;-110.320;2024-02-28T04:28:15;29.17;;;4.65;;
64500;SDS011;50874;24.150;-110.320;2024-02-28T04:30:41;18.40;;;3.33;;
64500;SDS011;50874;24.150;-110.320;2024-02-28T04:33:08;24.67;;;4.05;;
64500;SDS011;50874;24.150;-110.320;2024-02-28T04:35:35;6.88;;;1.80;;
64500;SDS011;50874;24.150;-110.320;2024-02-28T04:38:02;6.88;;;1.63;;
64500;SDS011;50874;24.150;-110.320;2024-02-28T04:40:28;5.43;;;1.92;;
64500;SDS011;50874;24.150;-110.320;2024-02-28T04:42:55;14.95;;;2.58;;
64500;SDS011;50874;24.150;-110.320;2024-02-28T04:45:21;12.30;;;2.63;;
64500;SDS011;50874;24.150;-110.320;2024-02-28T04:47:48;18.55;;;3.30;;
64500;SDS011;50874;24.150;-110.320;2024-02-28T04:50:17;8.90;;;2.13;;
64500;SDS011;50874;24.150;-110.320;2024-02-28T04:52:43;15.40;;;2.33;;
64500;SDS011;50874;24.150;-110.320;2024-02-28T04:55:10;12.35;;;2.78;;
64500;SDS011;50874;24.150;-110.320;2024-02-28T04:57:37;23.38;;;2.90;;
64500;SDS011;50874;24.150;-110.320;2024-02-28T05:00:04;20.75;;;3.33;;
64500;SDS011;50874;24.150;-110.320;2024-02-28T05:02:31;16.08;;;3.42;;
64500;SDS011;50874;24.150;-110.320;2024-02-28T05:04:57;12.77;;;2.63;;
64500;SDS011;50874;24.150;-110.320;2024-02-28T05:07:24;13.30;;;3.00;;
64500;SDS011;50874;24.150;-110.320;2024-02-28T05:09:50;17.20;;;2.45;;
64500;SDS011;50874;24.150;-110.320;2024-02-28T05:12:17;34.28;;;5.72;;
64500;SDS011;50874;24.150;-110.320;2024-02-28T05:14:43;26.50;;;5.07;;
64500;SDS011;50874;24.150;-110.320;2024-02-28T05:17:10;19.30;;;3.63;;
64500;SDS011;50874;24.150;-110.320;2024-02-28T05:19:37;26.48;;;4.45;;
64500;SDS011;50874;24.150;-110.320;2024-02-28T05:22:04;33.25;;;4.55;;
64500;SDS011;50874;24.150;-110.320;2024-02-28T05:24:31;27.58;;;4.35;;
64500;SDS011;50874;24.150;-110.320;2024-02-28T05:26:57;26.02;;;4.05;;
64500;SDS011;50874;24.150;-110.320;2024-02-28T05:29:24;19.42;;;4.57;;
64500;SDS011;50874;24.150;-110.320;2024-02-28T05:31:51;18.35;;;5.25;;
64500;SDS011;50874;24.150;-110.320;2024-02-28T05:34:18;33.00;;;7.28;;
64500;SDS011;50874;24.150;-110.320;2024-02-28T05:36:45;23.63;;;6.85;;
64500;SDS011;50874;24.150;-110.320;2024-02-28T05:39:11;30.00;;;7.93;;
64500;SDS011;50874;24.150;-110.320;2024-02-28T05:41:38;47.58;;;8.05;;
64500;SDS011;50874;24.150;-110.320;2024-02-28T05:44:04;44.15;;;9.68;;
64500;SDS011;50874;24.150;-110.320;2024-02-28T05:46:31;25.17;;;7.40;;
64500;SDS011;50874;24.150;-110.320;2024-02-28T05:48:57;32.13;;;7.32;;
64500;SDS011;50874;24.150;-110.320;2024-02-28T05:51:24;35.35;;;6.90;;
64500;SDS011;50874;24.150;-110.320;2024-02-28T05:53:51;32.67;;;6.90;;
64500;SDS011;50874;24.150;-110.320;2024-02-28T05:56:17;45.15;;;6.90;;
64500;SDS011;50874;24.150;-110.320;2024-02-28T05:58:46;62.58;;;7.07;;
64500;SDS011;50874;24.150;-110.320;2024-02-28T06:01:14;46.10;;;7.85;;
64500;SDS011;50874;24.150;-110.320;2024-02-28T06:03:42;48.60;;;5.70;;
64500;SDS011;50874;24.150;-110.320;2024-02-28T06:06:10;37.60;;;5.30;;
64500;SDS011;50874;24.150;-110.320;2024-02-28T06:08:38;24.27;;;4.53;;
64500;SDS011;50874;24.150;-110.320;2024-02-28T06:11:06;32.17;;;4.72;;
64500;SDS011;50874;24.150;-110.320;2024-02-28T06:13:33;17.85;;;3.63;;
64500;SDS011;50874;24.150;-110.320;2024-02-28T06:15:59;16.90;;;2.72;;
64500;SDS011;50874;24.150;-110.320;2024-02-28T06:18:26;10.68;;;2.55;;
64500;SDS011;50874;24.150;-110.320;2024-02-28T06:20:53;17.13;;;3.15;;
64500;SDS011;50874;24.150;-110.320;2024-02-28T06:23:20;15.80;;;2.50;;
64500;SDS011;50874;24.150;-110.320;2024-02-28T06:25:47;11.18;;;2.25;;
64500;SDS011;50874;24.150;-110.320;2024-02-28T06:28:14;13.90;;;2.90;;
64500;SDS011;50874;24.150;-110.320;2024-02-28T06:30:42;12.20;;;2.05;;
64500;SDS011;50874;24.150;-110.320;2024-02-28T06:33:12;16.38;;;2.75;;
64500;SDS011;50874;24.150;-110.320;2024-02-28T06:35:39;14.68;;;3.15;;
64500;SDS011;50874;24.150;-110.320;2024-02-28T06:38:06;8.73;;;2.22;;
64500;SDS011;50874;24.150;-110.320;2024-02-28T06:40:36;9.15;;;2.25;;
64500;SDS011;50874;24.150;-110.320;2024-02-28T06:43:03;10.23;;;2.47;;
64500;SDS011;50874;24.150;-110.320;2024-02-28T06:45:30;9.75;;;2.40;;
64500;SDS011;50874;24.150;-110.320;2024-02-28T06:47:57;10.30;;;3.25;;
64500;SDS011;50874;24.150;-110.320;2024-02-28T06:50:23;18.58;;;3.40;;
64500;SDS011;50874;24.150;-110.320;2024-02-28T06:52:50;8.85;;;2.33;;
64500;SDS011;50874;24.150;-110.320;2024-02-28T06:55:18;11.88;;;2.63;;
64500;SDS011;50874;24.150;-110.320;2024-02-28T06:57:45;13.77;;;2.45;;
64500;SDS011;50874;24.150;-110.320;2024-02-28T07:00:11;7.88;;;2.55;;
64500;SDS011;50874;24.150;-110.320;2024-02-28T07:02:40;12.63;;;1.88;;
64500;SDS011;50874;24.150;-110.320;2024-02-28T07:05:06;11.95;;;2.28;;
64500;SDS011;50874;24.150;-110.320;2024-02-28T07:07:33;5.90;;;2.15;;
64500;SDS011;50874;24.150;-110.320;2024-02-28T07:09:59;13.75;;;2.58;;
64500;SDS011;50874;24.150;-110.320;2024-02-28T07:12:28;23.67;;;3.78;;
64500;SDS011;50874;24.150;-110.320;2024-02-28T07:14:54;9.35;;;2.53;;
64500;SDS011;50874;24.150;-110.320;2024-02-28T07:17:21;12.30;;;2.58;;
64500;SDS011;50874;24.150;-110.320;2024-02-28T07:19:47;8.63;;;3.30;;
64500;SDS011;50874;24.150;-110.320;2024-02-28T07:22:14;9.30;;;2.53;;
64500;SDS011;50874;24.150;-110.320;2024-02-28T07:24:40;7.30;;;2.03;;
64500;SDS011;50874;24.150;-110.320;2024-02-28T07:27:07;14.60;;;2.90;;
64500;SDS011;50874;24.150;-110.320;2024-02-28T07:29:34;20.13;;;2.75;;
64500;SDS011;50874;24.150;-110.320;2024-02-28T07:32:02;30.15;;;4.35;;
64500;SDS011;50874;24.150;-110.320;2024-02-28T07:34:28;8.65;;;2.20;;
64500;SDS011;50874;24.150;-110.320;2024-02-28T07:36:55;12.73;;;2.55;;
64500;SDS011;50874;24.150;-110.320;2024-02-28T07:39:22;10.55;;;2.38;;
64500;SDS011;50874;24.150;-110.320;2024-02-28T07:41:49;8.00;;;2.63;;
64500;SDS011;50874;24.150;-110.320;2024-02-28T07:44:16;10.73;;;2.67;;
64500;SDS011;50874;24.150;-110.320;2024-02-28T07:46:42;10.57;;;2.50;;
64500;SDS011;50874;24.150;-110.320;2024-02-28T07:49:09;6.18;;;2.17;;
64500;SDS011;50874;24.150;-110.320;2024-02-28T07:51:36;7.18;;;2.60;;
64500;SDS011;50874;24.150;-110.320;2024-02-28T07:54:02;6.57;;;1.83;;
64500;SDS011;50874;24.150;-110.320;2024-02-28T07:56:29;7.25;;;2.38;;
64500;SDS011;50874;24.150;-110.320;2024-02-28T07:58:55;12.73;;;2.42;;
64500;SDS011;50874;24.150;-110.320;2024-02-28T08:01:22;3.30;;;1.80;;
64500;SDS011;50874;24.150;-110.320;2024-02-28T08:03:48;8.45;;;1.85;;
64500;SDS011;50874;24.150;-110.320;2024-02-28T08:06:15;6.15;;;2.08;;
64500;SDS011;50874;24.150;-110.320;2024-02-28T08:08:45;12.27;;;2.90;;
64500;SDS011;50874;24.150;-110.320;2024-02-28T08:11:12;16.00;;;3.65;;
64500;SDS011;50874;24.150;-110.320;2024-02-28T08:13:39;8.38;;;2.38;;
64500;SDS011;50874;24.150;-110.320;2024-02-28T08:16:05;14.65;;;2.55;;
64500;SDS011;50874;24.150;-110.320;2024-02-28T08:18:34;4.85;;;2.10;;
64500;SDS011;50874;24.150;-110.320;2024-02-28T08:21:00;7.05;;;2.67;;
64500;SDS011;50874;24.150;-110.320;2024-02-28T08:23:29;6.53;;;2.40;;
64500;SDS011;50874;24.150;-110.320;2024-02-28T08:25:56;6.22;;;2.05;;
64500;SDS011;50874;24.150;-110.320;2024-02-28T08:28:22;8.57;;;2.03;;
64500;SDS011;50874;24.150;-110.320;2024-02-28T08:30:49;5.18;;;1.90;;
64500;SDS011;50874;24.150;-110.320;2024-02-28T08:33:16;11.13;;;2.72;;
64500;SDS011;50874;24.150;-110.320;2024-02-28T08:35:42;10.98;;;2.33;;
64500;SDS011;50874;24.150;-110.320;2024-02-28T08:38:09;16.55;;;2.70;;
64500;SDS011;50874;24.150;-110.320;2024-02-28T08:40:35;9.75;;;2.10;;
64500;SDS011;50874;24.150;-110.320;2024-02-28T08:43:02;10.18;;;2.83;;
64500;SDS011;50874;24.150;-110.320;2024-02-28T08:45:28;15.35;;;3.10;;
64500;SDS011;50874;24.150;-110.320;2024-02-28T08:47:55;14.23;;;2.83;;
64500;SDS011;50874;24.150;-110.320;2024-02-28T08:50:23;8.80;;;1.85;;
64500;SDS011;50874;24.150;-110.320;2024-02-28T08:52:49;7.18;;;2.22;;
64500;SDS011;50874;24.150;-110.320;2024-02-28T08:55:15;6.25;;;1.92;;
64500;SDS011;50874;24.150;-110.320;2024-02-28T08:57:44;12.77;;;2.60;;
64500;SDS011;50874;24.150;-110.320;2024-02-28T09:00:11;8.57;;;2.25;;
64500;SDS011;50874;24.150;-110.320;2024-02-28T09:02:38;9.48;;;2.55;;
64500;SDS011;50874;24.150;-110.320;2024-02-28T09:05:04;8.55;;;2.63;;
64500;SDS011;50874;24.150;-110.320;2024-02-28T09:07:31;11.50;;;2.92;;
64500;SDS011;50874;24.150;-110.320;2024-02-28T09:10:03;12.07;;;2.88;;
64500;SDS011;50874;24.150;-110.320;2024-02-28T09:12:31;10.27;;;2.90;;
64500;SDS011;50874;24.150;-110.320;2024-02-28T09:14:58;5.82;;;2.03;;
64500;SDS011;50874;24.150;-110.320;2024-02-28T09:17:25;8.65;;;2.33;;
64500;SDS011;50874;24.150;-110.320;2024-02-28T09:19:52;3.75;;;1.80;;
64500;SDS011;50874;24.150;-110.320;2024-02-28T09:22:19;12.20;;;3.10;;
64500;SDS011;50874;24.150;-110.320;2024-02-28T09:24:46;8.80;;;2.40;;
64500;SDS011;50874;24.150;-110.320;2024-02-28T09:27:14;9.93;;;2.30;;
64500;SDS011;50874;24.150;-110.320;2024-02-28T09:29:40;9.85;;;2.47;;
64500;SDS011;50874;24.150;-110.320;2024-02-28T09:32:07;12.70;;;2.60;;
64500;SDS011;50874;24.150;-110.320;2024-02-28T09:34:34;8.77;;;2.05;;
64500;SDS011;50874;24.150;-110.320;2024-02-28T09:37:00;13.95;;;3.13;;
64500;SDS011;50874;24.150;-110.320;2024-02-28T09:39:27;10.18;;;3.20;;
64500;SDS011;50874;24.150;-110.320;2024-02-28T09:41:53;10.93;;;3.03;;
64500;SDS011;50874;24.150;-110.320;2024-02-28T09:44:20;14.93;;;2.80;;
64500;SDS011;50874;24.150;-110.320;2024-02-28T09:46:49;18.35;;;3.28;;
64500;SDS011;50874;24.150;-110.320;2024-02-28T09:49:17;7.40;;;2.75;;
64500;SDS011;50874;24.150;-110.320;2024-02-28T09:51:44;15.02;;;2.65;;
64500;SDS011;50874;24.150;-110.320;2024-02-28T09:54:17;17.83;;;3.13;;
64500;SDS011;50874;24.150;-110.320;2024-02-28T09:56:44;8.63;;;2.72;;
64500;SDS011;50874;24.150;-110.320;2024-02-28T09:59:13;13.30;;;3.25;;
64500;SDS011;50874;24.150;-110.320;2024-02-28T10:01:42;10.70;;;3.17;;
64500;SDS011;50874;24.150;-110.320;2024-02-28T10:04:12;12.75;;;2.20;;
64500;SDS011;50874;24.150;-110.320;2024-02-28T10:06:39;14.10;;;3.47;;
64500;SDS011;50874;24.150;-110.320;2024-02-28T10:09:06;14.05;;;2.90;;
64500;SDS011;50874;24.150;-110.320;2024-02-28T10:11:33;20.90;;;3.13;;
64500;SDS011;50874;24.150;-110.320;2024-02-28T10:14:02;16.33;;;2.90;;
64500;SDS011;50874;24.150;-110.320;2024-02-28T10:16:29;11.50;;;3.72;;
64500;SDS011;50874;24.150;-110.320;2024-02-28T10:18:56;9.80;;;3.22;;
64500;SDS011;50874;24.150;-110.320;2024-02-28T10:21:22;6.85;;;2.53;;
64500;SDS011;50874;24.150;-110.320;2024-02-28T10:23:51;11.40;;;2.65;;
64500;SDS011;50874;24.150;-110.320;2024-02-28T10:26:17;14.88;;;2.40;;
64500;SDS011;50874;24.150;-110.320;2024-02-28T10:28:44;3.58;;;2.05;;
64500;SDS011;50874;24.150;-110.320;2024-02-28T10:31:10;6.60;;;2.40;;
64500;SDS011;50874;24.150;-110.320;2024-02-28T10:33:37;6.85;;;2.17;;
64500;SDS011;50874;24.150;-110.320;2024-02-28T10:36:04;7.00;;;2.03;;
64500;SDS011;50874;24.150;-110.320;2024-02-28T10:38:31;9.60;;;2.13;;
64500;SDS011;50874;24.150;-110.320;2024-02-28T10:41:02;9.20;;;2.17;;
64500;SDS011;50874;24.150;-110.320;2024-02-28T10:43:29;9.88;;;2.85;;
64500;SDS011;50874;24.150;-110.320;2024-02-28T10:45:59;5.55;;;2.05;;
64500;SDS011;50874;24.150;-110.320;2024-02-28T10:48:26;10.35;;;2.50;;
64500;SDS011;50874;24.150;-110.320;2024-02-28T10:50:53;7.25;;;2.38;;
64500;SDS011;50874;24.150;-110.320;2024-02-28T10:53:22;9.80;;;2.25;;
64500;SDS011;50874;24.150;-110.320;2024-02-28T10:56:02;12.23;;;2.60;;
64500;SDS011;50874;24.150;-110.320;2024-02-28T10:58:37;8.30;;;1.92;;
64500;SDS011;50874;24.150;-110.320;2024-02-28T11:01:44;15.45;;;2.78;;
64500;SDS011;50874;24.150;-110.320;2024-02-28T11:04:16;8.02;;;2.35;;
64500;SDS011;50874;24.150;-110.320;2024-02-28T11:06:49;4.68;;;1.92;;
64500;SDS011;50874;24.150;-110.320;2024-02-28T11:09:20;6.57;;;2.35;;
64500;SDS011;50874;24.150;-110.320;2024-02-28T11:11:51;7.38;;;2.65;;
64500;SDS011;50874;24.150;-110.320;2024-02-28T11:14:18;8.65;;;2.17;;
64500;SDS011;50874;24.150;-110.320;2024-02-28T11:16:59;9.30;;;2.20;;
64500;SDS011;50874;24.150;-110.320;2024-02-28T11:19:29;7.68;;;2.42;;
64500;SDS011;50874;24.150;-110.320;2024-02-28T11:22:00;5.20;;;1.95;;
64500;SDS011;50874;24.150;-110.320;2024-02-28T11:24:33;6.45;;;2.08;;
64500;SDS011;50874;24.150;-110.320;2024-02-28T11:27:01;5.87;;;2.23;;
64500;SDS011;50874;24.150;-110.320;2024-02-28T11:29:28;11.65;;;2.85;;
64500;SDS011;50874;24.150;-110.320;2024-02-28T11:31:55;5.32;;;1.90;;
64500;SDS011;50874;24.150;-110.320;2024-02-28T11:34:21;13.85;;;2.30;;
64500;SDS011;50874;24.150;-110.320;2024-02-28T11:36:48;5.22;;;1.80;;
64500;SDS011;50874;24.150;-110.320;2024-02-28T11:39:16;9.32;;;2.42;;
64500;SDS011;50874;24.150;-110.320;2024-02-28T11:41:43;5.70;;;2.10;;
64500;SDS011;50874;24.150;-110.320;2024-02-28T11:44:14;6.63;;;2.17;;
64500;SDS011;50874;24.150;-110.320;2024-02-28T11:46:45;6.65;;;2.35;;
64500;SDS011;50874;24.150;-110.320;2024-02-28T11:49:12;5.97;;;2.58;;
64500;SDS011;50874;24.150;-110.320;2024-02-28T11:51:40;8.52;;;2.10;;
64500;SDS011;50874;24.150;-110.320;2024-02-28T11:54:10;5.53;;;2.30;;
64500;SDS011;50874;24.150;-110.320;2024-02-28T11:56:37;6.47;;;2.22;;
64500;SDS011;50874;24.150;-110.320;2024-02-28T11:59:04;3.08;;;1.80;;
64500;SDS011;50874;24.150;-110.320;2024-02-28T12:01:34;7.50;;;1.88;;
64500;SDS011;50874;24.150;-110.320;2024-02-28T12:04:04;5.55;;;1.77;;
64500;SDS011;50874;24.150;-110.320;2024-02-28T12:06:36;6.28;;;1.90;;
64500;SDS011;50874;24.150;-110.320;2024-02-28T12:09:04;8.38;;;1.60;;
64500;SDS011;50874;24.150;-110.320;2024-02-28T12:11:39;6.43;;;2.13;;
64500;SDS011;50874;24.150;-110.320;2024-02-28T12:14:06;4.97;;;1.75;;
64500;SDS011;50874;24.150;-110.320;2024-02-28T12:16:36;5.80;;;2.15;;
64500;SDS011;50874;24.150;-110.320;2024-02-28T12:19:10;5.95;;;2.05;;
64500;SDS011;50874;24.150;-110.320;2024-02-28T12:21:37;4.30;;;1.88;;
64500;SDS011;50874;24.150;-110.320;2024-02-28T12:24:05;7.80;;;2.33;;
64500;SDS011;50874;24.150;-110.320;2024-02-28T12:26:37;8.68;;;2.20;;
64500;SDS011;50874;24.150;-110.320;2024-02-28T12:29:04;16.13;;;2.50;;
64500;SDS011;50874;24.150;-110.320;2024-02-28T12:31:31;13.20;;;2.40;;
64500;SDS011;50874;24.150;-110.320;2024-02-28T12:33:57;14.73;;;2.78;;
64500;SDS011;50874;24.150;-110.320;2024-02-28T12:36:24;5.68;;;2.72;;
64500;SDS011;50874;24.150;-110.320;2024-02-28T12:38:51;11.38;;;3.10;;
64500;SDS011;50874;24.150;-110.320;2024-02-28T12:41:18;10.95;;;2.97;;
64500;SDS011;50874;24.150;-110.320;2024-02-28T12:43:45;10.48;;;2.63;;
64500;SDS011;50874;24.150;-110.320;2024-02-28T12:46:11;14.85;;;3.20;;
64500;SDS011;50874;24.150;-110.320;2024-02-28T12:48:38;15.40;;;3.67;;
64500;SDS011;50874;24.150;-110.320;2024-02-28T12:51:06;14.40;;;3.83;;
64500;SDS011;50874;24.150;-110.320;2024-02-28T12:53:34;13.75;;;2.70;;
64500;SDS011;50874;24.150;-110.320;2024-02-28T12:56:00;16.63;;;3.65;;
64500;SDS011;50874;24.150;-110.320;2024-02-28T12:58:27;14.77;;;3.47;;
64500;SDS011;50874;24.150;-110.320;2024-02-28T13:00:53;16.25;;;3.15;;
64500;SDS011;50874;24.150;-110.320;2024-02-28T13:03:20;9.80;;;2.80;;
64500;SDS011;50874;24.150;-110.320;2024-02-28T13:05:46;13.95;;;3.20;;
64500;SDS011;50874;24.150;-110.320;2024-02-28T13:08:13;10.77;;;2.72;;
64500;SDS011;50874;24.150;-110.320;2024-02-28T13:10:39;10.38;;;2.60;;
64500;SDS011;50874;24.150;-110.320;2024-02-28T13:13:09;27.58;;;4.05;;
64500;SDS011;50874;24.150;-110.320;2024-02-28T13:15:35;23.77;;;4.00;;
64500;SDS011;50874;24.150;-110.320;2024-02-28T13:18:02;33.15;;;4.63;;
64500;SDS011;50874;24.150;-110.320;2024-02-28T13:20:33;21.63;;;3.63;;
64500;SDS011;50874;24.150;-110.320;2024-02-28T13:22:59;26.33;;;4.68;;
64500;SDS011;50874;24.150;-110.320;2024-02-28T13:25:26;20.50;;;3.72;;
64500;SDS011;50874;24.150;-110.320;2024-02-28T13:27:52;18.10;;;3.40;;
64500;SDS011;50874;24.150;-110.320;2024-02-28T13:30:19;24.02;;;3.67;;
64500;SDS011;50874;24.150;-110.320;2024-02-28T13:32:46;30.30;;;4.43;;
64500;SDS011;50874;24.150;-110.320;2024-02-28T13:35:12;33.15;;;4.93;;
64500;SDS011;50874;24.150;-110.320;2024-02-28T13:37:39;63.42;;;9.00;;
64500;SDS011;50874;24.150;-110.320;2024-02-28T13:40:06;59.95;;;6.63;;
64500;SDS011;50874;24.150;-110.320;2024-02-28T13:42:36;34.80;;;5.15;;
64500;SDS011;50874;24.150;-110.320;2024-02-28T13:45:04;35.80;;;6.43;;
64500;SDS011;50874;24.150;-110.320;2024-02-28T13:47:34;33.53;;;5.47;;
64500;SDS011;50874;24.150;-110.320;2024-02-28T13:50:01;45.30;;;5.80;;
64500;SDS011;50874;24.150;-110.320;2024-02-28T13:52:28;208.80;;;20.08;;
64500;SDS011;50874;24.150;-110.320;2024-02-28T13:54:55;161.13;;;18.13;;
64500;SDS011;50874;24.150;-110.320;2024-02-28T13:57:21;157.48;;;15.48;;
64500;SDS011;50874;24.150;-110.320;2024-02-28T13:59:48;259.33;;;21.38;;